Time;durP1;ratioP1;P1;durP2;ratioP2;P2;SDS_P1;SDS_P2;PMS_P1;PMS_P2;Temp;Humidity;BMP_temperature;BMP_pressure;BME280_temperature;BME280_humidity;BME280_pressure;Samples;Min_cycle;Max_cycle;Signal;HPM_P1;HPM_P2
2021/04/05 04:00:53;;;;;;;2.20;2.00;;;;;;;7.66;43.02;100499.13;5555092;24;20319;-77
2021/04/05 04:03:32;;;;;;;3.83;2.10;;;;;;;7.64;42.83;100500.09;4842211;29;20588;-77
2021/04/05 04:06:02;;;;;;;2.70;1.58;;;;;;;7.56;43.01;100496.00;4838048;29;20066;-77
2021/04/05 04:08:38;;;;;;;2.00;1.90;;;;;;;7.54;42.29;100500.38;4830356;29;20049;-77
2021/04/05 04:11:06;;;;;;;1.92;1.80;;;;;;;7.52;42.16;100497.00;4836018;29;20524;-77
2021/04/05 04:13:43;;;;;;;3.30;1.90;;;;;;;7.43;42.28;100492.13;4843043;29;20042;-77
2021/04/05 04:16:12;;;;;;;1.83;1.60;;;;;;;7.51;42.39;100494.44;4843228;29;20050;-76
2021/04/05 04:18:38;;;;;;;2.50;2.00;;;;;;;7.46;42.63;100491.19;4843568;29;20056;-77
2021/04/05 04:21:09;;;;;;;3.40;1.77;;;;;;;7.52;42.11;100490.97;4842869;29;20501;-77
2021/04/05 04:23:37;;;;;;;1.98;1.83;;;;;;;7.54;42.34;100478.78;4843168;29;20053;-77
2021/04/05 04:26:05;;;;;;;2.15;1.80;;;;;;;7.53;42.09;100477.94;4839908;29;20050;-77
2021/04/05 04:28:33;;;;;;;2.15;1.80;;;;;;;7.57;41.63;100476.94;4842248;29;20161;-77
2021/04/05 04:31:02;;;;;;;1.63;1.45;;;;;;;7.55;41.84;100475.28;4842261;29;20042;-76
2021/04/05 04:33:30;;;;;;;1.92;1.80;;;;;;;7.62;41.35;100466.41;4842684;29;20050;-77
2021/04/05 04:35:57;;;;;;;2.78;1.92;;;;;;;7.45;42.04;100469.56;4838605;29;20117;-76
2021/04/05 04:38:25;;;;;;;2.65;1.92;;;;;;;7.32;41.85;100461.34;4840031;29;20106;-80
2021/04/05 04:40:52;;;;;;;3.80;2.80;;;;;;;7.39;41.20;100458.53;4840764;29;20051;-78
2021/04/05 04:43:19;;;;;;;2.78;2.25;;;;;;;7.45;41.40;100460.94;4840878;29;20058;-73
2021/04/05 04:45:46;;;;;;;4.10;2.55;;;;;;;7.61;41.25;100462.94;4839150;29;20045;-74
2021/04/05 04:48:13;;;;;;;4.32;2.28;;;;;;;7.63;41.34;100459.47;4842228;29;20489;-74
2021/04/05 04:50:41;;;;;;;3.35;2.10;;;;;;;7.43;41.96;100460.16;4842593;29;20120;-74
2021/04/05 04:53:07;;;;;;;4.43;2.80;;;;;;;7.45;41.96;100468.72;4843022;29;20050;-73
2021/04/05 04:55:35;;;;;;;2.90;2.13;;;;;;;7.34;42.37;100469.91;4841671;29;20114;-74
2021/04/05 04:58:03;;;;;;;3.35;2.55;;;;;;;7.48;42.24;100468.63;4841499;29;20766;-73
2021/04/05 05:00:32;;;;;;;2.72;2.00;;;;;;;7.51;41.76;100471.09;4840552;29;20133;-76
2021/04/05 05:03:00;;;;;;;2.63;1.90;;;;;;;7.46;42.57;100473.03;4841268;29;20404;-76
2021/04/05 05:05:33;;;;;;;2.70;2.30;;;;;;;7.58;42.48;100477.78;4842239;29;20089;-76
2021/04/05 05:08:00;;;;;;;2.47;2.28;;;;;;;7.60;42.70;100481.16;4836431;29;20129;-76
2021/04/05 05:10:27;;;;;;;2.03;1.83;;;;;;;7.58;42.76;100475.19;4823533;29;20494;-75
2021/04/05 05:12:53;;;;;;;2.50;2.30;;;;;;;7.72;42.73;100462.56;4826198;29;20121;-77
2021/04/05 05:15:22;;;;;;;3.67;2.35;;;;;;;8.11;41.86;100459.50;4841711;29;20128;-77
2021/04/05 05:17:49;;;;;;;4.72;1.95;;;;;;;8.30;40.60;100452.69;4838701;29;20073;-77
2021/04/05 05:20:17;;;;;;;2.70;2.50;;;;;;;8.33;41.16;100465.56;4841254;29;20045;-78
2021/04/05 05:22:57;;;;;;;5.22;2.10;;;;;;;8.40;41.56;100451.47;4841444;29;20460;-80
2021/04/05 05:25:25;;;;;;;2.80;2.28;;;;;;;8.50;41.44;100466.72;4841661;29;20450;-80
2021/04/05 05:28:03;;;;;;;3.42;2.33;;;;;;;8.93;40.28;100453.75;4841178;29;20518;-75
2021/04/05 05:30:30;;;;;;;5.88;2.35;;;;;;;9.32;39.68;100449.59;4814474;29;20080;-77
2021/04/05 05:33:02;;;;;;;3.35;2.53;;;;;;;9.29;39.93;100447.97;4823441;29;20046;-77
2021/04/05 05:35:29;;;;;;;2.97;2.38;;;;;;;9.81;38.93;100458.78;4822877;29;20043;-81
2021/04/05 05:38:04;;;;;;;4.65;2.30;;;;;;;9.72;39.46;100451.34;4823837;29;20057;-81
2021/04/05 05:40:33;;;;;;;5.28;2.35;;;;;;;9.81;39.31;100458.78;4821658;29;20046;-81
2021/04/05 05:43:08;;;;;;;3.75;2.28;;;;;;;9.58;39.31;100458.91;4821683;29;20444;-79
2021/04/05 05:45:44;;;;;;;2.63;2.30;;;;;;;10.29;37.98;100469.72;4823650;29;20460;-83
2021/04/05 05:48:43;;;;;;;12.05;2.70;;;;;;;10.37;37.54;100471.06;4825295;29;20486;-74
2021/04/05 05:51:41;;;;;;;3.10;2.65;;;;;;;10.81;36.49;100478.56;4823375;29;20050;-80
2021/04/05 05:54:23;;;;;;;3.78;2.78;;;;;;;10.89;35.75;100480.84;4824071;29;20468;-74
2021/04/05 05:57:14;;;;;;;6.22;2.78;;;;;;;11.41;34.65;100476.53;4822393;29;20074;-77
2021/04/05 05:59:47;;;;;;;4.07;2.83;;;;;;;11.48;34.70;100479.69;4824320;29;20057;-76
2021/04/05 06:02:35;;;;;;;2.83;2.58;;;;;;;11.46;34.59;100482.38;4823189;29;20150;-83
2021/04/05 06:05:25;;;;;;;3.00;2.58;;;;;;;12.29;33.75;100484.19;4820702;29;20057;-78
2021/04/05 06:08:07;;;;;;;3.35;2.75;;;;;;;12.73;32.68;100480.09;4810370;29;20061;-69
2021/04/05 06:10:44;;;;;;;3.78;2.45;;;;;;;12.44;32.94;100466.84;4821945;29;20490;-68
2021/04/05 06:13:35;;;;;;;4.10;2.42;;;;;;;13.02;32.31;100463.63;4822460;29;20042;-69
2021/04/05 06:16:01;;;;;;;3.67;2.70;;;;;;;13.46;31.64;100457.63;4820504;29;20394;-70
2021/04/05 06:18:48;;;;;;;3.53;2.45;;;;;;;13.98;30.80;100454.53;4821691;29;20410;-70
2021/04/05 06:21:26;;;;;;;3.03;2.50;;;;;;;14.56;29.74;100455.38;4822740;29;20078;-71
2021/04/05 06:23:57;;;;;;;4.10;2.78;;;;;;;14.12;30.74;100459.78;4822042;29;20134;-71
2021/04/05 06:26:50;;;;;;;6.35;2.90;;;;;;;14.46;31.13;100462.09;4820164;29;20087;-71
2021/04/05 06:29:36;;;;;;;3.40;3.10;;;;;;;14.40;32.60;100468.56;4822904;29;20047;-70
2021/04/05 06:32:33;;;;;;;3.15;2.85;;;;;;;14.69;31.80;100472.00;4818304;29;20138;-72
2021/04/05 06:35:22;;;;;;;3.92;2.55;;;;;;;14.10;32.63;100461.63;4823093;29;20077;-71
2021/04/05 06:38:16;;;;;;;5.63;3.63;;;;;;;14.83;31.35;100458.00;4820625;29;20046;-71
2021/04/05 06:40:44;;;;;;;6.03;3.33;;;;;;;15.23;30.99;100455.41;4820403;29;20468;-74
2021/04/05 06:44:03;;;;;;;5.22;3.28;;;;;;;16.19;29.55;100447.09;4819434;29;20306;-73
2021/04/05 06:46:48;;;;;;;2.72;2.47;;;;;;;16.59;28.87;100449.53;4782081;29;20043;-73
2021/04/05 06:49:26;;;;;;;;;;;;;;;17.00;28.69;100435.19;4822702;29;20129;-68
2021/04/05 06:52:20;;;;;;;6.45;3.40;;;;;;;16.72;29.87;100437.19;4821090;29;20019;-73
2021/04/05 06:55:27;;;;;;;4.38;3.10;;;;;;;16.84;29.66;100430.19;4817233;29;20451;-75
2021/04/05 06:58:06;;;;;;;7.32;2.85;;;;;;;16.77;29.00;100423.69;4818172;29;20069;-77
2021/04/05 07:00:49;;;;;;;7.97;2.88;;;;;;;17.65;28.52;100413.56;4822656;29;20055;-75
2021/04/05 07:03:53;;;;;;;5.65;2.88;;;;;;;16.99;29.38;100408.00;4823514;29;20050;-80
2021/04/05 07:06:57;;;;;;;5.85;2.97;;;;;;;17.47;29.49;100413.19;4817352;29;20137;-75
2021/04/05 07:09:45;;;;;;;5.95;3.40;;;;;;;15.99;31.27;100413.47;4821895;29;20134;-72
2021/04/05 07:12:35;;;;;;;6.55;3.03;;;;;;;17.13;30.72;100404.34;4823375;29;20049;-75
2021/04/05 07:15:29;;;;;;;7.32;3.20;;;;;;;17.26;30.72;100406.91;4786224;29;20057;-76
2021/04/05 07:18:23;;;;;;;2.88;2.58;;;;;;;17.58;29.54;100398.31;4818068;29;20049;-71
2021/04/05 07:21:08;;;;;;;7.97;3.38;;;;;;;18.50;28.19;100391.97;4822500;29;20050;-68
2021/04/05 07:23:45;;;;;;;7.35;3.50;;;;;;;18.43;27.51;100386.34;4823164;29;20402;-72
2021/04/05 07:26:36;;;;;;;6.78;3.72;;;;;;;18.93;27.64;100383.22;4821665;29;20133;-75
2021/04/05 07:29:24;;;;;;;5.68;3.33;;;;;;;19.46;26.35;100375.22;4821058;29;20051;-72
2021/04/05 07:32:01;;;;;;;5.03;3.28;;;;;;;19.41;26.62;100372.97;4820768;29;20149;-73
2021/04/05 07:34:40;;;;;;;3.95;3.13;;;;;;;20.56;23.87;100378.84;4820756;29;20126;-76
2021/04/05 07:37:25;;;;;;;3.17;2.47;;;;;;;19.78;23.99;100375.97;4821596;29;20081;-73
2021/04/05 07:40:00;;;;;;;5.40;3.40;;;;;;;20.29;23.99;100382.97;4825357;29;20485;-73
2021/04/05 07:42:46;;;;;;;4.57;2.58;;;;;;;19.92;22.82;100385.38;4823834;29;20054;-73
2021/04/05 07:45:34;;;;;;;4.38;3.10;;;;;;;20.60;22.37;100378.44;4823548;29;20059;-74
2021/04/05 07:48:22;;;;;;;4.05;2.80;;;;;;;20.14;23.63;100390.47;4820863;29;20054;-74
2021/04/05 07:51:22;;;;;;;7.20;3.10;;;;;;;19.09;24.26;100373.03;4818343;29;20051;-73
2021/04/05 07:54:01;;;;;;;4.20;2.35;;;;;;;20.47;23.57;100375.25;4822878;29;20074;-72
2021/04/05 07:56:31;;;;;;;6.32;2.65;;;;;;;20.37;23.46;100374.34;4818578;29;20520;-76
2021/04/05 07:59:35;;;;;;;4.03;2.85;;;;;;;21.80;22.01;100368.28;4823345;29;20133;-75
2021/04/05 08:02:43;;;;;;;4.80;3.37;;;;;;;21.82;21.96;100363.63;4804816;29;20501;-75
2021/04/05 08:05:15;;;;;;;4.93;2.35;;;;;;;21.60;21.83;100362.19;4819145;29;20051;-75
2021/04/05 08:07:54;;;;;;;2.58;2.38;;;;;;;21.47;21.52;100366.16;4820113;29;20134;-75
2021/04/05 08:10:48;;;;;;;2.65;2.45;;;;;;;21.89;20.82;100356.78;4808215;29;20137;-75
2021/04/05 08:13:42;;;;;;;2.63;2.42;;;;;;;22.39;21.41;100359.03;4816982;29;20050;-75
2021/04/05 08:16:23;;;;;;;6.87;2.87;;;;;;;22.33;21.35;100356.97;4806430;29;20120;-75
2021/04/05 08:19:12;;;;;;;4.40;2.97;;;;;;;22.46;20.67;100354.78;4813783;29;20071;-76
2021/04/05 08:21:49;;;;;;;4.05;2.47;;;;;;;22.48;21.18;100354.66;4815841;29;20059;-75
2021/04/05 08:24:23;;;;;;;5.05;3.20;;;;;;;23.39;20.17;100349.94;4813626;29;20051;-77
2021/04/05 08:27:14;;;;;;;3.47;3.15;;;;;;;23.41;19.36;100344.44;4818823;29;20046;-74
2021/04/05 08:29:49;;;;;;;4.43;2.88;;;;;;;23.17;19.70;100337.13;4822630;29;20499;-77
2021/04/05 08:32:37;;;;;;;4.03;3.08;;;;;;;24.00;18.77;100335.63;4825701;29;20057;-79
2021/04/05 08:35:41;;;;;;;3.30;2.45;;;;;;;23.41;19.28;100328.50;4815097;29;20093;-78
2021/04/05 08:38:33;;;;;;;9.93;3.00;;;;;;;23.76;19.25;100327.56;4820559;29;20046;-79
2021/04/05 08:41:43;;;;;;;4.90;3.45;;;;;;;23.15;19.74;100329.31;4823445;29;20054;-78
2021/04/05 08:44:31;;;;;;;3.28;2.38;;;;;;;24.03;17.50;100329.16;4822353;29;20092;-76
2021/04/05 08:47:01;;;;;;;3.42;2.45;;;;;;;23.50;18.00;100320.41;4814085;29;20530;-78
2021/04/05 08:49:29;;;;;;;4.13;3.25;;;;;;;23.89;17.83;100321.78;4817591;29;20042;-76
2021/04/05 08:52:02;;;;;;;3.92;2.45;;;;;;;21.82;20.20;100330.97;4813078;29;20070;-73
2021/04/05 08:54:31;;;;;;;3.50;2.83;;;;;;;22.92;19.50;100317.53;4817459;29;20125;-72
2021/04/05 08:57:05;;;;;;;5.85;2.50;;;;;;;22.76;18.55;100312.88;4817343;29;20046;-72
2021/04/05 08:59:38;;;;;;;4.80;3.60;;;;;;;21.48;19.05;100315.63;4823201;29;20522;-74
2021/04/05 09:02:18;;;;;;;5.03;2.17;;;;;;;23.43;18.20;100306.03;4809101;29;20139;-75
2021/04/05 09:04:46;;;;;;;8.18;7.45;;;;;;;23.13;18.40;100311.88;4810448;29;20465;-74
2021/04/05 09:07:31;;;;;;;4.50;4.10;;;;;;;22.30;19.03;100301.50;4817808;29;20121;-71
2021/04/05 09:10:04;;;;;;;3.05;2.60;;;;;;;22.19;19.74;100299.06;4822017;29;20079;-71
2021/04/05 09:12:37;;;;;;;4.88;2.45;;;;;;;22.40;19.69;100302.28;4819422;29;20107;-74
2021/04/05 09:15:24;;;;;;;2.23;2.03;;;;;;;21.93;19.20;100299.75;4820960;29;20405;-70
2021/04/05 09:18:21;;;;;;;6.20;2.60;;;;;;;21.98;20.47;100294.84;4813446;29;20150;-71
2021/04/05 09:21:12;;;;;;;5.50;2.45;;;;;;;22.35;19.51;100285.97;4817593;29;20062;-70
2021/04/05 09:24:11;;;;;;;3.40;2.47;;;;;;;21.85;19.99;100274.97;4820134;29;20046;-70
2021/04/05 09:26:59;;;;;;;9.73;3.42;;;;;;;21.20;21.16;100277.59;4818997;29;20073;-68
2021/04/05 09:29:41;;;;;;;16.05;9.18;;;;;;;20.73;20.98;100271.41;4816034;29;20049;-68
2021/04/05 09:32:32;;;;;;;3.97;2.85;;;;;;;20.51;21.23;100261.94;4820389;29;20051;-68
2021/04/05 09:35:23;;;;;;;4.57;2.45;;;;;;;20.70;21.45;100261.09;4816688;29;20054;-65
2021/04/05 09:38:27;;;;;;;9.70;2.95;;;;;;;20.67;21.68;100256.91;4819088;29;20447;-72
2021/04/05 09:41:27;;;;;;;4.35;3.03;;;;;;;19.70;22.46;100253.31;4820159;29;20414;-70
2021/04/05 09:43:56;;;;;;;6.63;3.42;;;;;;;19.84;22.56;100247.63;4818554;29;20069;-71
2021/04/05 09:46:31;;;;;;;5.85;3.10;;;;;;;19.45;23.56;100246.66;4819660;29;20121;-68
2021/04/05 09:49:18;;;;;;;10.30;3.30;;;;;;;19.27;23.98;100241.97;4821610;29;20054;-66
2021/04/05 09:52:23;;;;;;;5.82;3.30;;;;;;;19.14;23.81;100241.38;4822171;29;20095;-65
2021/04/05 09:55:02;;;;;;;11.27;3.42;;;;;;;18.81;23.55;100234.53;4802478;29;20043;-69
2021/04/05 09:57:32;;;;;;;4.55;2.72;;;;;;;18.71;23.50;100223.06;4822089;29;20146;-73
2021/04/05 10:00:01;;;;;;;4.40;2.65;;;;;;;18.91;23.64;100221.34;4822341;29;20127;-69
2021/04/05 10:02:57;;;;;;;5.57;4.32;;;;;;;18.39;22.80;100220.44;4821904;29;20050;-72
2021/04/05 10:05:25;;;;;;;4.63;2.75;;;;;;;18.47;23.51;100218.00;4822956;29;20050;-74
2021/04/05 10:07:55;;;;;;;10.48;3.88;;;;;;;18.27;24.33;100206.47;4820854;29;20072;-65
2021/04/05 10:10:26;;;;;;;11.18;3.60;;;;;;;18.32;24.16;100202.50;4820421;29;20046;-67
2021/04/05 10:12:54;;;;;;;3.08;2.78;;;;;;;18.19;23.97;100204.47;4820451;29;20406;-68
2021/04/05 10:15:26;;;;;;;7.00;2.97;;;;;;;18.14;24.15;100192.59;4822006;29;20053;-68
2021/04/05 10:17:55;;;;;;;7.15;3.50;;;;;;;18.16;24.36;100188.88;4820180;29;20498;-66
2021/04/05 10:20:29;;;;;;;3.85;3.13;;;;;;;17.60;24.58;100183.75;4822187;29;20102;-72
2021/04/05 10:22:58;;;;;;;4.93;3.75;;;;;;;17.97;24.83;100186.09;4815929;29;20134;-73
2021/04/05 10:25:25;;;;;;;44.70;40.70;;;;;;;18.02;24.88;100182.09;4804656;29;20065;-72
2021/04/05 10:27:54;;;;;;;8.40;4.82;;;;;;;18.18;24.63;100179.03;4816812;29;20066;-70
2021/04/05 10:30:31;;;;;;;7.32;3.80;;;;;;;18.19;24.14;100171.97;4825527;29;20069;-72
2021/04/05 10:33:08;;;;;;;4.65;4.25;;;;;;;18.17;24.28;100164.19;4818299;29;20065;-72
2021/04/05 10:35:37;;;;;;;4.85;3.00;;;;;;;18.10;24.71;100165.63;4815942;29;20058;-72
2021/04/05 10:38:05;;;;;;;5.15;4.65;;;;;;;17.98;24.63;100169.28;4824646;29;20050;-73
2021/04/05 10:40:34;;;;;;;16.95;15.55;;;;;;;18.17;25.41;100158.91;4815187;29;20086;-73
2021/04/05 10:43:16;;;;;;;7.38;5.47;;;;;;;18.22;24.06;100162.00;4821073;29;20051;-72
2021/04/05 10:45:46;;;;;;;41.80;32.40;;;;;;;18.15;24.21;100150.25;4810295;29;20158;-73
2021/04/05 10:48:36;;;;;;;256.23;178.38;;;;;;;18.30;24.04;100148.16;4810387;29;20460;-69
2021/04/05 10:51:26;;;;;;;67.10;60.15;;;;;;;18.10;25.60;100147.16;4810493;29;20568;-68
2021/04/05 10:54:02;;;;;;;32.33;27.90;;;;;;;17.61;25.49;100137.97;4817138;29;20095;-68
2021/04/05 10:56:33;;;;;;;46.28;34.03;;;;;;;17.95;25.35;100133.47;4814928;29;20081;-68
2021/04/05 10:59:07;;;;;;;23.45;20.33;;;;;;;17.67;26.14;100124.28;4818762;29;20468;-69
2021/04/05 11:01:43;;;;;;;75.75;69.53;;;;;;;17.91;25.26;100126.78;4820177;29;20082;-69
2021/04/05 11:04:11;;;;;;;133.27;121.75;;;;;;;17.96;25.29;100107.94;4819151;29;20078;-70
2021/04/05 11:06:38;;;;;;;62.88;57.17;;;;;;;17.76;24.64;100112.22;4816573;29;20125;-69
2021/04/05 11:09:07;;;;;;;6.15;5.03;;;;;;;17.87;24.46;100104.25;4819996;29;20069;-71
2021/04/05 11:11:36;;;;;;;8.05;6.20;;;;;;;17.51;25.04;100114.16;4806911;29;20078;-70
2021/04/05 11:14:07;;;;;;;7.72;4.82;;;;;;;17.58;25.39;100103.97;4819808;29;20074;-67
2021/04/05 11:16:35;;;;;;;7.93;5.90;;;;;;;17.77;25.72;100096.25;4825231;29;20074;-69
2021/04/05 11:19:06;;;;;;;7.10;5.50;;;;;;;17.91;25.53;100095.13;4825260;29;20083;-70
2021/04/05 11:21:49;;;;;;;21.55;10.45;;;;;;;17.89;25.26;100083.84;4816740;29;20138;-69
2021/04/05 11:24:26;;;;;;;19.00;15.27;;;;;;;18.03;25.45;100077.44;4823661;29;20070;-69
2021/04/05 11:26:57;;;;;;;14.63;11.00;;;;;;;18.10;25.00;100067.19;4823646;29;20047;-68
2021/04/05 11:29:25;;;;;;;46.13;40.20;;;;;;;18.14;24.76;100069.44;4824307;29;20508;-69
2021/04/05 11:31:53;;;;;;;17.25;6.05;;;;;;;17.86;25.42;100065.66;4825167;29;20049;-69
2021/04/05 11:34:27;;;;;;;5.90;5.00;;;;;;;17.91;25.11;100060.00;4822589;29;20489;-67
2021/04/05 11:36:58;;;;;;;6.18;5.15;;;;;;;17.78;25.10;100063.66;4820929;29;20056;-70
2021/04/05 11:39:39;;;;;;;5.78;3.58;;;;;;;17.60;25.91;100046.69;4823952;29;20050;-69
2021/04/05 11:42:07;;;;;;;5.05;3.78;;;;;;;17.63;26.17;100040.31;4822993;29;20061;-68
2021/04/05 11:44:53;;;;;;;6.00;3.47;;;;;;;17.90;25.51;100029.34;4824613;29;20042;-66
2021/04/05 11:47:21;;;;;;;13.23;9.73;;;;;;;18.03;26.23;100020.25;4821114;29;20065;-68
2021/04/05 11:49:48;;;;;;;10.43;3.88;;;;;;;17.89;25.41;100015.28;4817629;29;20050;-68
2021/04/05 11:52:19;;;;;;;5.18;3.40;;;;;;;17.55;26.69;100010.16;4821027;29;20084;-68
2021/04/05 11:54:59;;;;;;;4.50;3.67;;;;;;;17.73;26.16;100002.56;4815991;29;20049;-67
2021/04/05 11:57:30;;;;;;;6.30;3.35;;;;;;;17.84;25.79;100000.81;4819444;29;20095;-68
2021/04/05 12:00:02;;;;;;;6.32;3.63;;;;;;;17.61;25.76;100000.09;4822511;29;20058;-67
2021/04/05 12:02:35;;;;;;;8.55;3.28;;;;;;;17.66;25.53;99992.63;4823500;29;20137;-68
2021/04/05 12:05:05;;;;;;;4.85;3.55;;;;;;;17.83;26.12;99993.88;4817606;29;20060;-68
2021/04/05 12:07:51;;;;;;;7.68;3.88;;;;;;;17.93;25.48;99992.97;4818840;29;20051;-67
2021/04/05 12:10:26;;;;;;;5.72;3.38;;;;;;;17.82;25.63;99984.31;4812995;29;20066;-69
2021/04/05 12:13:05;;;;;;;6.07;3.70;;;;;;;17.75;26.56;99981.34;4810921;29;20058;-68
2021/04/05 12:15:34;;;;;;;4.80;4.30;;;;;;;17.87;26.20;99974.22;4824487;29;20047;-69
2021/04/05 12:18:02;;;;;;;4.97;4.43;;;;;;;18.03;26.23;99961.38;4820332;29;20049;-64
2021/04/05 12:20:30;;;;;;;5.68;4.22;;;;;;;18.04;26.29;99955.13;4821116;29;20137;-69
2021/04/05 12:23:03;;;;;;;7.07;3.85;;;;;;;17.85;26.57;99958.53;4821521;29;20077;-68
2021/04/05 12:25:35;;;;;;;5.95;3.50;;;;;;;17.71;26.61;99954.38;4822122;29;20050;-68
2021/04/05 12:28:04;;;;;;;4.40;3.80;;;;;;;17.71;26.55;99951.75;4821507;29;20070;-68
2021/04/05 12:30:33;;;;;;;7.40;5.25;;;;;;;17.90;26.54;99945.78;4821962;29;20497;-69
2021/04/05 12:33:02;;;;;;;7.35;5.72;;;;;;;18.04;26.31;99937.50;4820543;29;20130;-69
2021/04/05 12:35:53;;;;;;;4.30;2.95;;;;;;;18.06;26.68;99929.50;4822649;29;20042;-69
2021/04/05 12:38:36;;;;;;;5.05;3.42;;;;;;;17.89;26.86;99916.91;4823022;29;20057;-69
2021/04/05 12:41:06;;;;;;;4.22;3.42;;;;;;;17.90;27.27;99913.31;4822133;29;20402;-69
2021/04/05 12:43:36;;;;;;;6.03;4.10;;;;;;;17.87;27.48;99910.94;4818065;29;20451;-69
2021/04/05 12:46:07;;;;;;;19.90;12.60;;;;;;;17.80;27.63;99908.81;4815258;29;20478;-69
2021/04/05 12:48:37;;;;;;;4.25;3.55;;;;;;;17.75;27.08;99900.47;4815239;29;20066;-69
2021/04/05 12:51:07;;;;;;;6.30;4.22;;;;;;;17.52;26.85;99885.72;4819851;29;20046;-68
2021/04/05 12:53:39;;;;;;;5.38;3.85;;;;;;;17.81;26.46;99875.38;4824788;29;20097;-69
2021/04/05 12:56:15;;;;;;;3.90;3.38;;;;;;;17.84;26.49;99876.91;4822701;29;20491;-69
2021/04/05 12:58:42;;;;;;;7.05;4.25;;;;;;;17.71;26.50;99867.38;4823355;29;20257;-70
2021/04/05 13:01:08;;;;;;;5.63;4.10;;;;;;;17.82;26.44;99868.31;4820789;29;20062;-68
2021/04/05 13:03:49;;;;;;;6.55;3.97;;;;;;;17.76;26.29;99859.13;4823602;29;20125;-69
2021/04/05 13:06:22;;;;;;;6.68;4.53;;;;;;;17.84;26.27;99843.47;4821344;29;20074;-69
2021/04/05 13:09:13;;;;;;;6.00;3.60;;;;;;;17.95;26.40;99842.53;4822083;29;20554;-69
2021/04/05 13:12:15;;;;;;;6.72;6.10;;;;;;;17.84;27.10;99837.34;4819306;29;20074;-69
2021/04/05 13:14:49;;;;;;;10.30;5.05;;;;;;;17.74;26.88;99827.63;4823105;29;20517;-70
2021/04/05 13:17:28;;;;;;;5.15;4.53;;;;;;;17.83;27.68;99823.34;4821669;29;20071;-69
2021/04/05 13:19:57;;;;;;;5.05;4.18;;;;;;;17.47;27.75;99822.03;4817467;29;20417;-70
2021/04/05 13:22:27;;;;;;;4.38;3.97;;;;;;;17.31;27.47;99813.75;4821219;29;20145;-70
2021/04/05 13:24:57;;;;;;;6.28;4.30;;;;;;;17.63;27.17;99803.97;4823881;29;20046;-69
2021/04/05 13:27:26;;;;;;;5.55;4.30;;;;;;;17.74;27.22;99788.09;4823630;29;20043;-71
2021/04/05 13:29:54;;;;;;;6.97;4.50;;;;;;;17.79;27.64;99785.06;4823563;29;20046;-72
2021/04/05 13:32:27;;;;;;;6.70;4.53;;;;;;;17.90;27.91;99782.31;4823443;29;20476;-71
2021/04/05 13:35:00;;;;;;;7.15;3.90;;;;;;;17.78;28.08;99784.19;4822906;29;20135;-71
2021/04/05 13:37:27;;;;;;;5.13;4.60;;;;;;;17.67;29.45;99781.63;4820084;29;20414;-71
2021/04/05 13:39:54;;;;;;;5.45;4.43;;;;;;;17.53;28.41;99771.47;4820606;29;20597;-72
2021/04/05 13:42:25;;;;;;;6.70;4.93;;;;;;;17.66;28.10;99763.31;4815063;29;20046;-69
2021/04/05 13:45:05;;;;;;;6.28;4.05;;;;;;;17.65;27.65;99751.94;4813187;29;20455;-70
2021/04/05 13:47:33;;;;;;;5.65;4.30;;;;;;;17.76;29.03;99743.97;4814818;29;20043;-72
2021/04/05 13:50:03;;;;;;;10.32;5.57;;;;;;;17.73;28.40;99746.84;4814453;29;20121;-70
2021/04/05 13:52:31;;;;;;;5.63;3.88;;;;;;;17.74;28.85;99751.19;4814493;29;20127;-71
2021/04/05 13:55:02;;;;;;;7.47;3.85;;;;;;;17.91;27.85;99746.22;4813407;29;20050;-72
2021/04/05 13:57:43;;;;;;;4.38;3.97;;;;;;;17.98;27.39;99740.25;4821170;29;20041;-70
2021/04/05 14:00:11;;;;;;;5.18;4.68;;;;;;;17.81;28.45;99738.28;4820398;29;20182;-72
2021/04/05 14:02:58;;;;;;;7.28;5.05;;;;;;;17.86;28.05;99738.72;4822872;29;20062;-71
2021/04/05 14:05:34;;;;;;;8.85;4.72;;;;;;;17.95;27.65;99737.91;4822002;29;20118;-73
2021/04/05 14:08:03;;;;;;;9.35;4.47;;;;;;;17.89;27.77;99733.16;4823162;29;20078;-72
2021/04/05 14:10:31;;;;;;;5.05;4.32;;;;;;;17.93;27.79;99728.44;4821443;29;20130;-73
2021/04/05 14:13:04;;;;;;;5.43;4.05;;;;;;;18.01;27.93;99710.16;4823405;29;20093;-71
2021/04/05 14:15:30;;;;;;;5.40;4.38;;;;;;;17.86;28.56;99720.25;4822199;29;20129;-66
2021/04/05 14:18:17;;;;;;;8.02;5.72;;;;;;;17.58;28.42;99718.34;4824158;29;20549;-68
2021/04/05 14:20:45;;;;;;;6.32;5.47;;;;;;;17.64;28.12;99707.28;4823061;29;20125;-69
2021/04/05 14:23:19;;;;;;;7.32;5.13;;;;;;;17.61;28.13;99703.09;4822324;29;20106;-66
2021/04/05 14:26:06;;;;;;;5.75;4.40;;;;;;;17.65;28.41;99699.22;4821084;29;20049;-69
2021/04/05 14:28:50;;;;;;;8.50;4.65;;;;;;;17.60;28.92;99701.44;4841317;29;20133;-71
2021/04/05 14:31:36;;;;;;;4.87;4.33;;;;;;;17.58;28.35;99686.72;4833809;29;20057;-71
2021/04/05 14:34:11;;;;;;;5.03;4.38;;;;;;;17.64;28.25;99681.75;4826091;29;20070;-71
2021/04/05 14:36:42;;;;;;;6.05;3.97;;;;;;;17.74;28.38;99682.63;4815542;29;20458;-71
2021/04/05 14:39:20;;;;;;;5.78;4.93;;;;;;;17.78;29.11;99678.75;4817184;29;20169;-71
2021/04/05 14:42:20;;;;;;;9.13;5.95;;;;;;;17.66;30.08;99678.97;4805294;29;20475;-71
2021/04/05 14:44:55;;;;;;;6.95;4.70;;;;;;;17.60;30.39;99672.44;4804957;29;20123;-71
2021/04/05 14:47:24;;;;;;;7.15;5.15;;;;;;;17.70;29.64;99670.66;4827079;29;20056;-71
2021/04/05 14:49:54;;;;;;;5.35;4.82;;;;;;;17.68;28.38;99667.31;4845293;29;20052;-71
2021/04/05 14:52:28;;;;;;;7.60;5.32;;;;;;;17.49;28.70;99673.38;4844713;29;20050;-71
2021/04/05 14:54:56;;;;;;;8.75;5.60;;;;;;;17.67;28.54;99659.53;4844724;29;20054;-71
2021/04/05 14:57:31;;;;;;;6.18;4.78;;;;;;;17.89;28.52;99669.03;4843409;29;20494;-72
2021/04/05 15:00:11;;;;;;;5.50;3.95;;;;;;;17.90;28.54;99663.66;4840079;29;20077;-69
2021/04/05 15:02:39;;;;;;;4.53;3.70;;;;;;;17.71;28.29;99659.16;4827866;29;20077;-70
2021/04/05 15:05:08;;;;;;;7.22;5.28;;;;;;;17.84;29.03;99655.44;4826373;29;20054;-70
2021/04/05 15:07:39;;;;;;;5.15;4.60;;;;;;;17.78;28.80;99646.28;4826369;29;20042;-74
2021/04/05 15:10:09;;;;;;;10.15;5.15;;;;;;;17.95;28.36;99650.03;4826720;29;20042;-73
2021/04/05 15:12:39;;;;;;;7.28;5.95;;;;;;;17.91;27.79;99656.56;4826877;29;20122;-73
2021/04/05 15:15:14;;;;;;;7.55;4.72;;;;;;;17.92;27.74;99647.69;4821776;29;20130;-73
2021/04/05 15:17:46;;;;;;;5.00;4.15;;;;;;;17.70;28.01;99644.31;4826382;29;20516;-74
2021/04/05 15:20:15;;;;;;;5.57;4.10;;;;;;;17.80;28.06;99642.53;4826091;29;20054;-65
2021/04/05 15:22:43;;;;;;;6.10;4.32;;;;;;;17.90;28.14;99629.38;4826298;29;20081;-64
2021/04/05 15:25:12;;;;;;;5.10;4.10;;;;;;;17.84;28.04;99632.53;4825565;29;20059;-65
2021/04/05 15:27:41;;;;;;;6.35;4.88;;;;;;;17.87;28.11;99640.19;4826698;29;20222;-73
2021/04/05 15:30:10;;;;;;;7.80;4.15;;;;;;;17.86;28.35;99637.69;4825912;29;20077;-72
2021/04/05 15:32:47;;;;;;;4.90;3.80;;;;;;;17.96;28.27;99625.34;4826207;29;20081;-72
2021/04/05 15:35:15;;;;;;;7.95;4.50;;;;;;;17.86;28.57;99614.78;4825824;29;20203;-72
2021/04/05 15:37:59;;;;;;;4.97;4.47;;;;;;;17.85;28.89;99614.94;4826043;29;20077;-74
2021/04/05 15:40:31;;;;;;;9.02;5.05;;;;;;;17.67;30.76;99606.84;4826191;29;20111;-74
2021/04/05 15:43:03;;;;;;;9.30;5.20;;;;;;;17.36;31.55;99596.38;4826077;29;20046;-73
2021/04/05 15:45:46;;;;;;;8.10;5.75;;;;;;;17.61;30.86;99597.69;4825433;29;20047;-73
2021/04/05 15:48:24;;;;;;;7.72;6.55;;;;;;;17.46;31.45;99599.03;4822955;29;20054;-73
2021/04/05 15:51:40;;;;;;;5.53;5.03;;;;;;;17.20;33.34;99598.69;4825368;29;20129;-72
2021/04/05 15:54:20;;;;;;;6.78;5.00;;;;;;;17.21;33.92;99593.31;4801808;29;20311;-73
2021/04/05 15:56:54;;;;;;;9.55;4.85;;;;;;;17.26;32.84;99596.38;4830052;29;20050;-73
2021/04/05 15:59:23;;;;;;;7.18;5.07;;;;;;;17.23;32.52;99591.38;4825032;29;20046;-72
2021/04/05 16:01:53;;;;;;;6.82;4.90;;;;;;;17.32;32.63;99588.91;4835679;29;20093;-72
2021/04/05 16:04:30;;;;;;;10.55;5.43;;;;;;;17.41;33.00;99593.34;4842938;29;20069;-73
2021/04/05 16:07:09;;;;;;;7.85;5.60;;;;;;;17.41;32.56;99581.00;4843044;29;20493;-73
2021/04/05 16:09:44;;;;;;;7.45;4.90;;;;;;;17.43;32.36;99578.25;4834758;29;20099;-73
2021/04/05 16:12:37;;;;;;;10.07;5.03;;;;;;;17.47;31.88;99582.25;4825192;29;20408;-72
2021/04/05 16:15:28;;;;;;;22.67;6.18;;;;;;;17.39;32.54;99579.47;4803937;29;20079;-72